createdAt,value
2022-09-15T00:01:01.419Z,362.08
2022-09-15T00:03:28.572Z,337.37
2022-09-15T00:05:55.212Z,369.17
2022-09-15T00:08:23.221Z,370.10
2022-09-15T00:10:58.414Z,362.10
2022-09-15T00:13:25.864Z,361.48
2022-09-15T00:15:53.698Z,344.75
2022-09-15T00:18:20.299Z,344.58
2022-09-15T00:20:46.997Z,368.27
2022-09-15T00:23:15.506Z,350.73
2022-09-15T00:25:53.046Z,349.98
2022-09-15T00:28:21.898Z,333.53
2022-09-15T00:30:55.332Z,346.20
2022-09-15T00:33:23.049Z,336.45
2022-09-15T00:35:53.974Z,309.00
2022-09-15T00:38:21.141Z,301.63
2022-09-15T00:40:51.455Z,296.95
2022-09-15T00:43:21.871Z,286.27
2022-09-15T00:45:48.818Z,287.35
2022-09-15T00:48:20.602Z,286.03
2022-09-15T00:50:53.188Z,290.85
2022-09-15T00:53:20.773Z,284.00
2022-09-15T00:55:49.754Z,309.80
2022-09-15T00:58:22.779Z,292.63
2022-09-15T01:01:01.608Z,298.55
2022-09-15T01:03:32.664Z,292.73
2022-09-15T01:06:08.367Z,315.50
2022-09-15T01:08:40.949Z,326.10
2022-09-15T01:11:07.786Z,330.05
2022-09-15T01:13:34.983Z,348.35
2022-09-15T01:19:30.372Z,334.25
2022-09-15T01:22:12.777Z,316.33
2022-09-15T01:25:05.082Z,317.55
2022-09-15T01:27:56.163Z,318.67
2022-09-15T01:30:25.019Z,317.10
2022-09-15T01:33:19.003Z,327.77
2022-09-15T01:36:10.489Z,352.17
2022-09-15T01:39:03.864Z,356.90
2022-09-15T01:41:43.077Z,372.52
2022-09-15T01:44:22.096Z,359.63
2022-09-15T01:46:54.580Z,349.23
2022-09-15T01:49:26.338Z,354.27
2022-09-15T01:51:54.208Z,341.58
2022-09-15T01:54:29.805Z,326.17
2022-09-15T01:56:57.385Z,329.83
2022-09-15T01:59:24.021Z,343.20
2022-09-15T02:01:59.620Z,313.33
2022-09-15T02:04:38.752Z,313.85
2022-09-15T02:07:15.290Z,323.60
2022-09-15T02:09:54.623Z,310.52
2022-09-15T02:12:33.995Z,312.98
2022-09-15T02:15:12.389Z,298.30
2022-09-15T02:17:45.606Z,319.65
2022-09-15T02:20:25.375Z,303.92
2022-09-15T02:22:57.257Z,323.65
2022-09-15T02:25:38.266Z,306.58
2022-09-15T02:28:08.692Z,335.65
2022-09-15T02:30:41.878Z,321.92
2022-09-15T02:33:14.169Z,325.65
2022-09-15T02:35:41.942Z,329.92
2022-09-15T02:38:10.657Z,345.60
2022-09-15T02:40:42.369Z,327.85
2022-09-15T02:43:12.450Z,330.73
2022-09-15T02:45:39.532Z,327.23
2022-09-15T02:48:06.252Z,320.90
2022-09-15T02:50:32.757Z,329.77
2022-09-15T02:52:59.313Z,313.23
2022-09-15T02:55:28.936Z,327.40
2022-09-15T02:57:56.606Z,324.10
2022-09-15T03:00:23.698Z,334.20
2022-09-15T03:02:53.482Z,322.55
2022-09-15T03:05:23.266Z,325.80
2022-09-15T03:07:51.030Z,322.70
2022-09-15T03:10:17.788Z,330.73
2022-09-15T03:12:47.062Z,322.55
2022-09-15T03:15:16.705Z,325.88
2022-09-15T03:17:46.241Z,343.13
2022-09-15T03:20:16.177Z,338.77
2022-09-15T03:22:42.790Z,328.85
2022-09-15T03:25:10.604Z,364.58
2022-09-15T03:27:38.390Z,340.02
2022-09-15T03:30:06.438Z,347.65
2022-09-15T03:32:33.197Z,364.08
2022-09-15T03:34:59.785Z,361.67
2022-09-15T03:37:27.098Z,360.50
2022-09-15T03:39:53.774Z,344.42
2022-09-15T03:42:20.727Z,355.33
2022-09-15T03:44:47.328Z,331.88
2022-09-15T03:47:16.493Z,349.52
2022-09-15T03:49:43.203Z,324.38
2022-09-15T03:52:10.139Z,330.17
2022-09-15T03:54:36.703Z,326.80
2022-09-15T03:57:03.448Z,337.23
2022-09-15T03:59:30.091Z,329.58
2022-09-15T04:01:56.822Z,333.80
2022-09-15T04:04:23.411Z,324.25
2022-09-15T04:06:50.040Z,309.83
2022-09-15T04:09:16.625Z,317.50
2022-09-15T04:11:43.148Z,318.67
2022-09-15T04:14:09.762Z,318.02
2022-09-15T04:16:39.575Z,311.13
2022-09-15T04:19:06.232Z,327.05
2022-09-15T04:21:32.808Z,302.20
2022-09-15T04:23:59.303Z,317.70
2022-09-15T04:26:31.532Z,330.88
2022-09-15T04:29:03.722Z,313.47
2022-09-15T04:31:31.737Z,292.63
2022-09-15T04:33:58.403Z,304.67
2022-09-15T04:36:28.234Z,295.45
2022-09-15T04:38:55.386Z,302.30
2022-09-15T04:41:22.670Z,292.45
2022-09-15T04:43:51.997Z,310.85
2022-09-15T04:46:19.021Z,316.45
2022-09-15T04:48:48.777Z,325.58
2022-09-15T04:51:18.248Z,313.92
2022-09-15T04:53:45.328Z,307.55
2022-09-15T04:56:14.276Z,318.67
2022-09-15T04:58:45.147Z,299.48
2022-09-15T05:01:22.057Z,320.98
2022-09-15T05:03:49.466Z,303.75
2022-09-15T05:06:19.658Z,335.80
2022-09-15T05:08:51.281Z,301.52
2022-09-15T05:11:19.381Z,322.30
2022-09-15T05:13:48.660Z,307.40
2022-09-15T05:16:18.211Z,315.48
2022-09-15T05:18:46.280Z,314.30
2022-09-15T05:21:14.925Z,313.27
2022-09-15T05:23:44.516Z,302.13
2022-09-15T05:26:13.225Z,313.50
2022-09-15T05:28:40.313Z,314.23
2022-09-15T05:31:12.429Z,290.13
2022-09-15T05:33:39.829Z,311.27
2022-09-15T05:36:07.266Z,312.30
2022-09-15T05:38:34.293Z,313.90
2022-09-15T05:41:06.229Z,325.17
2022-09-15T05:43:34.586Z,344.60
2022-09-15T05:46:01.865Z,311.45
2022-09-15T05:48:29.203Z,344.27
2022-09-15T05:50:58.027Z,341.15
2022-09-15T05:53:28.433Z,326.65
2022-09-15T05:55:59.928Z,325.00
2022-09-15T05:58:34.772Z,335.95
2022-09-15T06:01:09.710Z,330.83
2022-09-15T06:03:36.752Z,335.80
2022-09-15T06:06:05.541Z,319.92
2022-09-15T06:08:34.341Z,301.85
2022-09-15T06:11:17.958Z,313.52
2022-09-15T06:13:47.864Z,308.15
2022-09-15T06:16:39.076Z,313.38
2022-09-15T06:19:05.801Z,321.07
2022-09-15T06:21:33.361Z,300.52
2022-09-15T06:24:03.321Z,319.20
2022-09-15T06:26:30.337Z,314.98
2022-09-15T06:29:02.205Z,308.67
2022-09-15T06:31:31.579Z,313.88
2022-09-15T06:33:59.278Z,309.83
2022-09-15T06:36:28.974Z,319.40
2022-09-15T06:38:59.595Z,304.98
2022-09-15T06:41:33.043Z,275.85
2022-09-15T06:44:17.747Z,287.45
2022-09-15T06:46:44.621Z,282.90
2022-09-15T06:49:11.343Z,279.10
2022-09-15T06:51:38.129Z,280.50
2022-09-15T06:54:06.053Z,287.67
2022-09-15T06:56:38.118Z,293.73
2022-09-15T06:59:05.720Z,295.90
2022-09-15T07:01:32.492Z,293.47
2022-09-15T07:04:00.947Z,269.77
2022-09-15T07:06:29.916Z,281.95
2022-09-15T07:08:58.403Z,286.35
2022-09-15T07:11:25.630Z,293.15
2022-09-15T07:13:52.696Z,301.02
2022-09-15T07:16:24.210Z,290.92
2022-09-15T07:18:54.409Z,287.70
2022-09-15T07:21:24.166Z,277.80
2022-09-15T07:23:52.837Z,265.52
2022-09-15T07:26:25.281Z,262.73
2022-09-15T07:28:57.888Z,260.50
2022-09-15T07:31:27.125Z,247.27
2022-09-15T07:33:54.104Z,251.43
2022-09-15T07:36:20.809Z,239.38
2022-09-15T07:38:49.470Z,237.38
2022-09-15T07:41:21.830Z,235.57
2022-09-15T07:43:53.340Z,228.20
2022-09-15T07:46:22.379Z,263.05
2022-09-15T07:48:54.523Z,250.70
2022-09-15T07:51:23.392Z,298.27
2022-09-15T07:53:50.969Z,338.05
2022-09-15T07:56:18.576Z,367.30
2022-09-15T07:58:49.142Z,353.17
2022-09-15T08:01:17.003Z,369.27
2022-09-15T08:03:46.502Z,384.50
2022-09-15T08:06:13.885Z,386.80
2022-09-15T08:08:41.323Z,416.03
2022-09-15T08:11:17.673Z,432.08
2022-09-15T08:13:49.911Z,376.85
2022-09-15T08:16:19.409Z,373.85
2022-09-15T08:18:46.254Z,352.02
2022-09-15T08:21:16.460Z,317.02
2022-09-15T08:23:43.176Z,256.75
2022-09-15T08:26:14.140Z,269.50
2022-09-15T08:28:43.802Z,265.17
2022-09-15T08:31:12.840Z,272.08
2022-09-15T08:33:45.212Z,256.25
2022-09-15T08:36:13.450Z,230.55
2022-09-15T08:38:40.929Z,216.93
2022-09-15T08:41:22.519Z,207.75
2022-09-15T08:44:08.299Z,160.02
2022-09-15T08:46:48.039Z,150.85
2022-09-15T08:49:49.950Z,138.93
2022-09-15T08:52:28.552Z,125.95
2022-09-15T08:54:58.356Z,89.63
2022-09-15T08:57:26.078Z,97.63
2022-09-15T08:59:55.035Z,106.75
2022-09-15T09:02:54.360Z,128.50
2022-09-15T09:05:41.569Z,133.60
2022-09-15T09:08:32.325Z,109.78
2022-09-15T09:11:20.514Z,92.38
2022-09-15T09:14:06.942Z,78.32
2022-09-15T09:17:04.545Z,78.50
2022-09-15T09:20:27.002Z,82.43
2022-09-15T09:22:54.657Z,104.03
2022-09-15T09:25:27.704Z,110.60
2022-09-15T09:27:58.136Z,111.10
2022-09-15T09:30:27.636Z,95.27
2022-09-15T09:33:11.210Z,88.18
2022-09-15T09:35:51.636Z,78.30
2022-09-15T09:38:32.306Z,84.43
2022-09-15T09:41:02.349Z,91.90
2022-09-15T09:43:33.054Z,77.70
2022-09-15T09:45:59.903Z,67.68
2022-09-15T09:48:27.642Z,85.40
2022-09-15T09:50:55.256Z,57.30
2022-09-15T09:53:26.621Z,48.60
2022-09-15T09:55:55.264Z,38.90
2022-09-15T09:58:25.762Z,41.30
2022-09-15T10:00:53.396Z,27.92
2022-09-15T10:03:23.323Z,31.13
2022-09-15T10:06:06.443Z,26.20
2022-09-15T10:08:33.659Z,24.42
2022-09-15T10:11:10.480Z,17.92
2022-09-15T10:13:50.704Z,25.17
2022-09-15T10:16:19.463Z,19.97
2022-09-15T10:18:54.017Z,13.00
2022-09-15T10:21:24.865Z,11.10
2022-09-15T10:23:51.936Z,11.18
2022-09-15T10:26:34.430Z,8.98
2022-09-15T10:29:12.599Z,11.68
2022-09-15T10:31:40.411Z,10.18
2022-09-15T10:34:30.402Z,13.77
2022-09-15T10:37:13.944Z,8.00
2022-09-15T10:39:53.774Z,10.70
2022-09-15T10:42:26.448Z,10.55
2022-09-15T10:45:18.833Z,10.65
2022-09-15T10:48:02.918Z,8.40
2022-09-15T10:50:40.077Z,9.73
2022-09-15T10:53:31.533Z,8.82
2022-09-15T10:56:12.560Z,8.63
2022-09-15T10:58:56.827Z,13.00
2022-09-15T11:01:31.955Z,8.52
2022-09-15T11:04:11.436Z,8.63
2022-09-15T11:07:03.134Z,10.38
2022-09-15T11:09:45.718Z,9.90
2022-09-15T11:12:16.749Z,10.55
2022-09-15T11:14:51.639Z,8.60
2022-09-15T11:17:37.607Z,9.75
2022-09-15T11:20:38.081Z,9.27
2022-09-15T11:23:27.501Z,10.47
2022-09-15T11:26:12.111Z,9.45
2022-09-15T11:28:52.604Z,8.77
2022-09-15T11:31:27.880Z,8.13
2022-09-15T11:34:13.749Z,7.40
2022-09-15T11:37:01.466Z,6.80
2022-09-15T11:39:39.825Z,8.73
2022-09-15T11:42:35.166Z,8.27
2022-09-15T11:45:03.340Z,8.13
2022-09-15T11:47:42.615Z,8.03
2022-09-15T11:50:23.100Z,9.93
2022-09-15T11:53:18.796Z,11.52
2022-09-15T11:56:00.404Z,12.82
2022-09-15T11:58:48.847Z,11.38
2022-09-15T12:01:21.522Z,9.73
2022-09-15T12:03:59.579Z,10.05
2022-09-15T12:06:47.715Z,9.98
2022-09-15T12:09:20.629Z,9.68
2022-09-15T12:11:51.588Z,10.35
2022-09-15T12:14:32.845Z,9.73
2022-09-15T12:17:00.031Z,15.38
2022-09-15T12:19:36.506Z,11.23
2022-09-15T12:22:12.180Z,13.02
2022-09-15T12:24:43.934Z,10.50
2022-09-15T12:27:19.537Z,10.00
2022-09-15T12:29:58.161Z,10.43
2022-09-15T12:32:33.180Z,10.23
2022-09-15T12:35:13.776Z,15.10
2022-09-15T12:37:47.658Z,14.07
2022-09-15T12:40:35.578Z,12.70
2022-09-15T12:43:23.496Z,18.23
2022-09-15T12:46:00.570Z,12.77
2022-09-15T12:48:33.796Z,10.73
2022-09-15T12:51:05.021Z,11.90
2022-09-15T12:56:11.742Z,10.20
2022-09-15T12:58:48.237Z,12.73
2022-09-15T13:01:27.104Z,15.60
2022-09-15T13:03:55.126Z,11.73
2022-09-15T13:06:22.772Z,15.98
2022-09-15T13:09:10.884Z,12.40
2022-09-15T13:11:42.926Z,10.93
2022-09-15T13:14:20.442Z,12.00
2022-09-15T13:16:53.759Z,75.72
2022-09-15T13:19:41.795Z,133.73
2022-09-15T13:22:11.508Z,113.60
2022-09-15T13:25:01.830Z,171.13
2022-09-15T13:27:51.746Z,69.90
2022-09-15T13:30:24.295Z,86.43
2022-09-15T13:39:51.696Z,6.57
2022-09-15T13:42:36.397Z,8.68
2022-09-15T13:45:29.608Z,9.70
2022-09-15T13:48:37.968Z,8.75
2022-09-15T13:51:19.387Z,13.25
2022-09-15T13:53:57.553Z,11.23
2022-09-15T13:56:32.951Z,11.70
2022-09-15T13:59:10.279Z,11.88
2022-09-15T14:01:42.820Z,10.75
2022-09-15T14:04:17.456Z,6.93
2022-09-15T14:06:51.856Z,6.75
2022-09-15T14:09:48.126Z,9.98
2022-09-15T14:12:19.538Z,26.80
2022-09-15T14:14:46.320Z,30.75
2022-09-15T14:17:28.748Z,44.87
2022-09-15T14:20:01.191Z,25.05
2022-09-15T14:22:34.836Z,25.17
2022-09-15T14:27:58.533Z,14.63
2022-09-15T14:43:51.902Z,12.32
2022-09-15T14:46:21.474Z,14.05
2022-09-15T14:48:51.258Z,10.27
2022-09-15T14:51:33.185Z,14.40
2022-09-15T14:54:01.803Z,32.00
2022-09-15T14:56:35.432Z,30.88
2022-09-15T14:59:15.910Z,17.60
2022-09-15T15:02:21.426Z,14.85
2022-09-15T15:04:57.589Z,13.02
2022-09-15T15:07:27.712Z,16.48
2022-09-15T15:10:04.514Z,16.63
2022-09-15T15:12:35.227Z,14.95
2022-09-15T15:15:03.044Z,16.50
2022-09-15T15:17:54.757Z,13.30
2022-09-15T15:20:25.080Z,12.95
2022-09-15T15:23:16.952Z,11.65
2022-09-15T15:25:43.713Z,14.57
2022-09-15T15:28:30.667Z,18.13
2022-09-15T15:31:14.744Z,11.52
2022-09-15T15:33:56.970Z,14.33
2022-09-15T15:36:27.614Z,13.30
2022-09-15T15:38:57.002Z,14.40
2022-09-15T15:41:28.318Z,14.60
2022-09-15T15:44:07.723Z,15.10
2022-09-15T15:46:55.008Z,15.63
2022-09-15T15:49:27.354Z,12.35
2022-09-15T15:51:55.402Z,15.88
2022-09-15T15:54:23.042Z,11.35
2022-09-15T15:56:50.349Z,13.05
2022-09-15T15:59:17.211Z,15.73
2022-09-15T16:01:44.807Z,12.17
2022-09-15T16:04:15.778Z,10.63
2022-09-15T16:06:44.361Z,9.98
2022-09-15T16:09:13.403Z,12.70
2022-09-15T16:11:41.117Z,11.30
2022-09-15T16:14:11.210Z,10.40
2022-09-15T16:16:37.779Z,12.48
2022-09-15T16:19:04.646Z,14.13
2022-09-15T16:21:40.174Z,13.77
2022-09-15T16:24:12.580Z,15.60
2022-09-15T16:26:39.947Z,11.73
2022-09-15T16:29:06.624Z,16.60
2022-09-15T16:31:33.907Z,16.23
2022-09-15T16:34:00.566Z,12.40
2022-09-15T16:36:27.138Z,12.52
2022-09-15T16:38:53.904Z,13.05
2022-09-15T16:41:26.105Z,8.52
2022-09-15T16:43:57.251Z,14.23
2022-09-15T16:46:23.988Z,14.82
2022-09-15T16:48:50.734Z,11.77
2022-09-15T16:51:27.912Z,11.87
2022-09-15T16:53:56.809Z,9.83
2022-09-15T16:56:23.501Z,10.20
2022-09-15T16:58:54.807Z,12.90
2022-09-15T17:01:25.220Z,9.68
2022-09-15T17:03:51.890Z,11.50
2022-09-15T17:06:18.721Z,9.25
2022-09-15T17:08:48.039Z,9.48
2022-09-15T17:11:20.127Z,14.40
2022-09-15T17:13:47.174Z,11.68
2022-09-15T17:16:17.240Z,12.98
2022-09-15T17:18:43.927Z,9.45
2022-09-15T17:21:12.224Z,14.48
2022-09-15T17:23:42.972Z,10.90
2022-09-15T17:26:15.274Z,13.77
2022-09-15T17:28:42.391Z,12.80
2022-09-15T17:31:22.159Z,14.63
2022-09-15T17:33:50.287Z,11.48
2022-09-15T17:36:17.366Z,11.68
2022-09-15T17:38:48.083Z,11.53
2022-09-15T17:41:17.077Z,16.75
2022-09-15T17:43:43.796Z,11.82
2022-09-15T17:46:12.832Z,12.35
2022-09-15T17:48:39.986Z,11.60
2022-09-15T17:51:09.638Z,17.65
2022-09-15T17:53:36.360Z,9.47
2022-09-15T17:56:03.439Z,9.77
2022-09-15T17:58:31.389Z,11.57
2022-09-15T18:00:58.975Z,13.52
2022-09-15T18:03:34.703Z,12.85
2022-09-15T18:06:06.478Z,12.20
2022-09-15T18:08:33.799Z,14.43
2022-09-15T18:11:00.829Z,16.20
2022-09-15T18:13:29.670Z,15.63
2022-09-15T18:15:57.165Z,12.70
2022-09-15T18:18:26.790Z,13.70
2022-09-15T18:20:57.879Z,19.15
2022-09-15T18:23:26.244Z,13.95
2022-09-15T18:25:53.089Z,16.60
2022-09-15T18:28:20.505Z,14.15
2022-09-15T18:30:49.625Z,17.23
2022-09-15T18:33:24.157Z,13.20
2022-09-15T18:35:54.707Z,18.50
2022-09-15T18:38:22.045Z,13.90
2022-09-15T18:40:55.258Z,13.40
2022-09-15T18:43:25.230Z,15.82
2022-09-15T18:46:01.171Z,14.10
2022-09-15T18:48:29.184Z,12.23
2022-09-15T18:50:55.992Z,13.10
2022-09-15T18:53:22.780Z,13.95
2022-09-15T18:55:50.286Z,15.43
2022-09-15T18:58:19.138Z,15.60
2022-09-15T19:00:46.050Z,16.33
2022-09-15T19:03:14.071Z,16.13
2022-09-15T19:05:40.961Z,13.43
2022-09-15T19:08:11.426Z,12.63
2022-09-15T19:10:47.948Z,14.68
2022-09-15T19:13:18.299Z,17.92
2022-09-15T19:15:45.063Z,18.58
2022-09-15T19:18:11.967Z,13.70
2022-09-15T19:20:38.696Z,18.23
2022-09-15T19:23:05.463Z,15.52
2022-09-15T19:25:36.114Z,19.02
2022-09-15T19:28:05.356Z,24.52
2022-09-15T19:30:32.006Z,21.37
2022-09-15T19:32:58.866Z,24.13
2022-09-15T19:35:28.719Z,30.55
2022-09-15T19:37:55.361Z,22.17
2022-09-15T19:40:25.014Z,15.63
2022-09-15T19:42:52.199Z,13.15
2022-09-15T19:45:19.032Z,13.07
2022-09-15T19:47:50.873Z,15.63
2022-09-15T19:50:17.745Z,12.23
2022-09-15T19:52:44.477Z,21.63
2022-09-15T19:55:12.439Z,17.17
2022-09-15T19:57:40.746Z,16.00
2022-09-15T20:00:10.730Z,33.88
2022-09-15T20:02:37.372Z,36.95
2022-09-15T20:07:48.885Z,35.10
2022-09-15T20:10:16.413Z,52.45
2022-09-15T20:12:43.166Z,40.08
2022-09-15T20:15:14.401Z,50.70
2022-09-15T20:17:42.309Z,33.70
2022-09-15T20:20:10.993Z,42.17
2022-09-15T20:22:37.647Z,35.65
2022-09-15T20:25:04.639Z,23.25
2022-09-15T20:27:33.641Z,27.80
2022-09-15T20:30:02.725Z,18.90
2022-09-15T20:32:29.401Z,23.20
2022-09-15T20:34:56.044Z,28.65
2022-09-15T20:37:23.071Z,20.85
2022-09-15T20:39:54.107Z,23.23
2022-09-15T20:42:26.768Z,22.63
2022-09-15T20:44:53.409Z,28.77
2022-09-15T20:47:23.107Z,16.13
2022-09-15T20:49:49.776Z,14.85
2022-09-15T20:52:16.650Z,22.00
2022-09-15T20:54:43.237Z,18.40
2022-09-15T20:57:10.221Z,19.63
2022-09-15T20:59:37.198Z,26.98
2022-09-15T21:02:05.905Z,35.42
2022-09-15T21:04:32.755Z,35.92
2022-09-15T21:07:02.370Z,41.78
2022-09-15T21:09:35.047Z,49.07
2022-09-15T21:12:01.791Z,45.22
2022-09-15T21:14:28.690Z,39.55
2022-09-15T21:16:57.610Z,42.80
2022-09-15T21:19:37.990Z,46.67
2022-09-15T21:22:07.259Z,41.28
2022-09-15T21:24:33.859Z,46.65
2022-09-15T21:27:19.010Z,32.88
2022-09-15T21:29:45.626Z,38.47
2022-09-15T21:32:12.179Z,47.53
2022-09-15T21:34:38.788Z,37.22
2022-09-15T21:37:05.690Z,50.75
2022-09-15T21:39:32.444Z,39.38
2022-09-15T21:41:59.331Z,38.80
2022-09-15T21:44:25.893Z,53.83
2022-09-15T21:46:52.766Z,48.33
2022-09-15T21:49:20.167Z,34.97
2022-09-15T21:51:47.551Z,32.28
2022-09-15T21:54:16.761Z,51.87
2022-09-15T21:56:43.386Z,47.63
2022-09-15T21:59:10.826Z,38.83
2022-09-15T22:01:37.494Z,64.53
2022-09-15T22:04:08.523Z,42.13
2022-09-15T22:06:40.502Z,32.90
2022-09-15T22:09:21.314Z,47.17
2022-09-15T22:11:49.055Z,53.35
2022-09-15T22:14:17.929Z,48.58
2022-09-15T22:16:44.600Z,40.55
2022-09-15T22:19:11.788Z,52.05
2022-09-15T22:21:41.781Z,63.35
2022-09-15T22:24:11.951Z,57.75
2022-09-15T22:26:39.585Z,89.72
2022-09-15T22:29:07.038Z,66.40
2022-09-15T22:31:34.472Z,68.28
2022-09-15T22:34:01.169Z,68.93
2022-09-15T22:36:30.290Z,62.57
2022-09-15T22:39:04.139Z,72.82
2022-09-15T22:41:33.365Z,51.53
2022-09-15T22:43:59.963Z,55.92
2022-09-15T22:46:29.020Z,57.53
2022-09-15T22:48:55.669Z,49.45
2022-09-15T22:51:22.279Z,43.53
2022-09-15T22:53:49.068Z,54.88
2022-09-15T22:56:19.941Z,58.83
2022-09-15T22:58:48.511Z,75.80
2022-09-15T23:01:27.918Z,66.40
2022-09-15T23:03:59.914Z,80.80
2022-09-15T23:06:28.584Z,112.35
2022-09-15T23:08:57.586Z,122.00
2022-09-15T23:11:26.057Z,156.00
2022-09-15T23:13:53.902Z,201.23
2022-09-15T23:16:22.000Z,189.33
2022-09-15T23:18:49.905Z,265.98
2022-09-15T23:21:16.752Z,313.40
2022-09-15T23:23:47.647Z,342.52
2022-09-15T23:26:16.648Z,360.17
2022-09-15T23:28:43.464Z,361.33
2022-09-15T23:31:12.341Z,343.85
2022-09-15T23:33:39.797Z,333.92
2022-09-15T23:36:09.256Z,342.77
2022-09-15T23:38:37.382Z,334.63
2022-09-15T23:41:06.648Z,331.73
2022-09-15T23:43:33.776Z,315.20
2022-09-15T23:46:01.388Z,307.85
2022-09-15T23:48:28.020Z,300.77
2022-09-15T23:50:54.983Z,325.30
2022-09-15T23:53:21.823Z,331.38
2022-09-15T23:55:48.679Z,329.50
2022-09-15T23:58:15.634Z,337.05
